Terminal Aerodrome Forecast
Issued by NWS

Current Version | Previous Version | Text Only | Print | Product List | Glossary On
Versions: 1 2 3 4 5 6 7 8 9 10 11 12 13 14
868
FTUS45 KRIW 011720
TAFJAC
TAF
KJAC 011720Z 0118/0218 03011KT P6SM SCT050
     FM020300 VRB06KT P6SM SCT250
      AMD LTD TO CLD VIS AND WIND=

USA.gov is the U.S. government's official web portal to all federal, state and local government web resources and services.